SVR237 UUDD-URSS
Flight info
| Callsign | SVR237 |
|---|---|
| Flight time | N/A |
| Altitude | 35000 |
| Route | LINRU4N LINRU L4 EKTUT N72 UMSIS N166 ADNET W79 BINOL BINOL1L |
| Aircraft | A321/M-SDE3FGHIRWY/LB1 |
Departure
| Time | N/A |
|---|---|
| Airport | Domodedovo International Airport (UUDD) |
Arrival
| Time | 2026-05-05 18:48 |
|---|---|
| Airport | Sochi International Airport (URSS) |
| Time | Latitude | Longitude | Altitude | Speed | Heading |
|---|---|---|---|---|---|
| 2026-05-05 18:23 | 43.22831 | 39.79058 | 33706 ft | 382 kts | 135° |
| 2026-05-05 18:23 | 43.20786 | 39.81294 | 33339 ft | 376 kts | 153° |
| 2026-05-05 18:24 | 43.18348 | 39.82526 | 33012 ft | 371 kts | 170° |
| 2026-05-05 18:24 | 43.15794 | 39.82649 | 32691 ft | 368 kts | 188° |
| 2026-05-05 18:24 | 43.13328 | 39.81762 | 32378 ft | 366 kts | 197° |
| 2026-05-05 18:24 | 43.10925 | 39.80659 | 32044 ft | 365 kts | 197° |
| 2026-05-05 18:25 | 43.08523 | 39.79556 | 31720 ft | 362 kts | 197° |
| 2026-05-05 18:25 | 43.06937 | 39.78831 | 31528 ft | 360 kts | 198° |
| 2026-05-05 18:25 | 43.03808 | 39.77404 | 31123 ft | 355 kts | 198° |
| 2026-05-05 18:25 | 43.01578 | 39.75953 | 30469 ft | 364 kts | 216° |
| 2026-05-05 18:26 | 42.99783 | 39.73423 | 29797 ft | 383 kts | 234° |
| 2026-05-05 18:26 | 42.98619 | 39.70066 | 29120 ft | 402 kts | 252° |
| 2026-05-05 18:26 | 42.98312 | 39.66231 | 28445 ft | 417 kts | 271° |
| 2026-05-05 18:26 | 42.98970 | 39.62371 | 27761 ft | 423 kts | 292° |
| 2026-05-05 18:27 | 43.00541 | 39.59075 | 27081 ft | 422 kts | 313° |
| 2026-05-05 18:27 | 43.02889 | 39.56682 | 26145 ft | 418 kts | 334° |
| 2026-05-05 18:27 | 43.05655 | 39.55637 | 25472 ft | 412 kts | 356° |
| 2026-05-05 18:27 | 43.08429 | 39.55908 | 25108 ft | 400 kts | 16° |
| 2026-05-05 18:28 | 43.13597 | 39.58286 | 24422 ft | 383 kts | 21° |
| 2026-05-05 18:28 | 43.16094 | 39.59479 | 24081 ft | 376 kts | 21° |
| 2026-05-05 18:28 | 43.18541 | 39.60621 | 23753 ft | 370 kts | 21° |
| 2026-05-05 18:29 | 43.20897 | 39.61889 | 23406 ft | 360 kts | 32° |
| 2026-05-05 18:29 | 43.22834 | 39.63944 | 23066 ft | 348 kts | 51° |
| 2026-05-05 18:29 | 43.24191 | 39.66650 | 22726 ft | 336 kts | 68° |
| 2026-05-05 18:29 | 43.24886 | 39.69602 | 22370 ft | 326 kts | 83° |
| 2026-05-05 18:30 | 43.24964 | 39.72642 | 22050 ft | 316 kts | 98° |
| 2026-05-05 18:30 | 43.24460 | 39.75534 | 21734 ft | 308 kts | 113° |
| 2026-05-05 18:30 | 43.23466 | 39.78052 | 21422 ft | 301 kts | 127° |
| 2026-05-05 18:30 | 43.22051 | 39.80132 | 21116 ft | 295 kts | 141° |
| 2026-05-05 18:31 | 43.20340 | 39.81630 | 20802 ft | 290 kts | 154° |
| 2026-05-05 18:31 | 43.18445 | 39.82499 | 20425 ft | 288 kts | 168° |
| 2026-05-05 18:31 | 43.16450 | 39.82713 | 20017 ft | 289 kts | 182° |
| 2026-05-05 18:31 | 43.14469 | 39.82238 | 19627 ft | 290 kts | 194° |
| 2026-05-05 18:32 | 43.12571 | 39.81415 | 19264 ft | 289 kts | 196° |
| 2026-05-05 18:32 | 43.10675 | 39.80543 | 18882 ft | 287 kts | 196° |
| 2026-05-05 18:32 | 43.08771 | 39.79665 | 18514 ft | 286 kts | 196° |
| 2026-05-05 18:32 | 43.06903 | 39.78809 | 18148 ft | 286 kts | 195° |
| 2026-05-05 18:33 | 43.05014 | 39.77948 | 17786 ft | 284 kts | 195° |
| 2026-05-05 18:33 | 43.03158 | 39.77075 | 17415 ft | 284 kts | 200° |
| 2026-05-05 18:33 | 43.01453 | 39.75724 | 17061 ft | 286 kts | 216° |
| 2026-05-05 18:33 | 43.00035 | 39.73813 | 16725 ft | 287 kts | 230° |
| 2026-05-05 18:34 | 42.98996 | 39.71500 | 16386 ft | 288 kts | 244° |
| 2026-05-05 18:34 | 42.98391 | 39.68905 | 16030 ft | 288 kts | 258° |
| 2026-05-05 18:34 | 42.98259 | 39.66210 | 15713 ft | 288 kts | 272° |
| 2026-05-05 18:34 | 42.98607 | 39.63538 | 15388 ft | 288 kts | 287° |
| 2026-05-05 18:35 | 42.99421 | 39.61049 | 15062 ft | 287 kts | 302° |
| 2026-05-05 18:35 | 43.00652 | 39.58912 | 14989 ft | 289 kts | 316° |
| 2026-05-05 18:35 | 43.02248 | 39.57210 | 14986 ft | 289 kts | 331° |
| 2026-05-05 18:35 | 43.04082 | 39.56098 | 14979 ft | 288 kts | 346° |
| 2026-05-05 18:36 | 43.06038 | 39.55633 | 14963 ft | 285 kts | 0° |
| 2026-05-05 18:36 | 43.07991 | 39.55821 | 14967 ft | 282 kts | 14° |
| 2026-05-05 18:36 | 43.09892 | 39.56564 | 14988 ft | 281 kts | 21° |
| 2026-05-05 18:36 | 43.11707 | 39.57518 | 14979 ft | 279 kts | 31° |
| 2026-05-05 18:37 | 43.13278 | 39.59006 | 14975 ft | 275 kts | 46° |
| 2026-05-05 18:37 | 43.14539 | 39.60966 | 14973 ft | 272 kts | 59° |
| 2026-05-05 18:37 | 43.15418 | 39.63204 | 14962 ft | 269 kts | 71° |
| 2026-05-05 18:37 | 43.15913 | 39.65667 | 14972 ft | 267 kts | 84° |
| 2026-05-05 18:38 | 43.15989 | 39.68201 | 14979 ft | 265 kts | 96° |
| 2026-05-05 18:38 | 43.15655 | 39.70658 | 14969 ft | 264 kts | 109° |
| 2026-05-05 18:38 | 43.14924 | 39.72970 | 14984 ft | 264 kts | 121° |
| 2026-05-05 18:38 | 43.13848 | 39.74982 | 14972 ft | 264 kts | 133° |
| 2026-05-05 18:39 | 43.12452 | 39.76641 | 14960 ft | 265 kts | 145° |
| 2026-05-05 18:39 | 43.10852 | 39.77837 | 14978 ft | 264 kts | 153° |
| 2026-05-05 18:39 | 43.09345 | 39.79231 | 14721 ft | 263 kts | 129° |
| 2026-05-05 18:39 | 43.08600 | 39.81511 | 14111 ft | 271 kts | 95° |
| 2026-05-05 18:40 | 43.08939 | 39.84021 | 13479 ft | 280 kts | 64° |
| 2026-05-05 18:40 | 43.10131 | 39.86169 | 12856 ft | 291 kts | 42° |
| 2026-05-05 18:40 | 43.11850 | 39.87556 | 12246 ft | 292 kts | 19° |
| 2026-05-05 18:40 | 43.13852 | 39.87855 | 11603 ft | 292 kts | 353° |
| 2026-05-05 18:41 | 43.15738 | 39.86913 | 10984 ft | 291 kts | 327° |
| 2026-05-05 18:41 | 43.17379 | 39.85290 | 10347 ft | 289 kts | 325° |
| 2026-05-05 18:41 | 43.18989 | 39.83698 | 9716 ft | 286 kts | 326° |
| 2026-05-05 18:41 | 43.20598 | 39.82140 | 9097 ft | 284 kts | 326° |
| 2026-05-05 18:42 | 43.22216 | 39.80592 | 8469 ft | 281 kts | 326° |
| 2026-05-05 18:42 | 43.23808 | 39.79077 | 7906 ft | 276 kts | 327° |
| 2026-05-05 18:42 | 43.25335 | 39.77629 | 7490 ft | 266 kts | 327° |
| 2026-05-05 18:42 | 43.26856 | 39.76188 | 6989 ft | 260 kts | 327° |
| 2026-05-05 18:43 | 43.28317 | 39.74804 | 6486 ft | 256 kts | 327° |
| 2026-05-05 18:43 | 43.29768 | 39.73429 | 5961 ft | 252 kts | 327° |
| 2026-05-05 18:43 | 43.31209 | 39.72065 | 5434 ft | 249 kts | 327° |
| 2026-05-05 18:43 | 43.32616 | 39.70773 | 4889 ft | 240 kts | 334° |
| 2026-05-05 18:44 | 43.34204 | 39.70262 | 3997 ft | 239 kts | 5° |
| 2026-05-05 18:44 | 43.35725 | 39.71016 | 3443 ft | 233 kts | 36° |
| 2026-05-05 18:44 | 43.36859 | 39.72520 | 3172 ft | 224 kts | 52° |
| 2026-05-05 18:44 | 43.37671 | 39.74294 | 2846 ft | 218 kts | 60° |
| 2026-05-05 18:45 | 43.38336 | 39.76093 | 2669 ft | 201 kts | 62° |
| 2026-05-05 18:45 | 43.38914 | 39.77788 | 2291 ft | 192 kts | 63° |
| 2026-05-05 18:45 | 43.39451 | 39.79393 | 1969 ft | 179 kts | 63° |
| 2026-05-05 18:45 | 43.39951 | 39.80879 | 1721 ft | 164 kts | 63° |
| 2026-05-05 18:46 | 43.40413 | 39.82239 | 1522 ft | 148 kts | 63° |
| 2026-05-05 18:46 | 43.40845 | 39.83509 | 1381 ft | 146 kts | 62° |
| 2026-05-05 18:46 | 43.41274 | 39.84764 | 1227 ft | 146 kts | 63° |
| 2026-05-05 18:46 | 43.41703 | 39.86019 | 1036 ft | 146 kts | 63° |
| 2026-05-05 18:47 | 43.42133 | 39.87281 | 952 ft | 145 kts | 63° |
| 2026-05-05 18:47 | 43.42562 | 39.88541 | 949 ft | 146 kts | 63° |
| 2026-05-05 18:47 | 43.43000 | 39.89822 | 757 ft | 147 kts | 61° |
| 2026-05-05 18:47 | 43.43447 | 39.91064 | 426 ft | 147 kts | 61° |
| 2026-05-05 18:48 | 43.43886 | 39.92339 | 202 ft | 147 kts | 65° |
| 2026-05-05 18:48 | 43.44269 | 39.93630 | 45 ft | 147 kts | 64° |
| 2026-05-05 18:48 | 43.44733 | 39.94870 | 55 ft | 132 kts | 57° |
| 2026-05-05 18:48 | 43.44849 | 39.95484 | 69 ft | 15 kts | 98° |
| 2026-05-05 18:49 | 43.44850 | 39.95496 | 69 ft | 0 kts | 71° |
| 2026-05-05 18:49 | 43.44879 | 39.95544 | 70 ft | 10 kts | 36° |
| 2026-05-05 18:49 | 43.44966 | 39.95564 | 70 ft | 15 kts | 335° |
| 2026-05-05 18:49 | 43.45041 | 39.95504 | 72 ft | 16 kts | 328° |
| 2026-05-05 18:50 | 43.45098 | 39.95413 | 72 ft | 11 kts | 287° |
| 2026-05-05 18:50 | 43.45091 | 39.95335 | 71 ft | 7 kts | 246° |
| 2026-05-05 18:50 | 43.45047 | 39.95251 | 67 ft | 18 kts | 229° |
| 2026-05-05 18:50 | 43.44955 | 39.95095 | 57 ft | 3 kts | 244° |
| 2026-05-05 18:51 | 43.44936 | 39.95026 | 54 ft | 6 kts | 251° |
| 2026-05-05 18:51 | 43.44922 | 39.94968 | 54 ft | 9 kts | 252° |
| 2026-05-05 18:51 | 43.44897 | 39.94873 | 54 ft | 4 kts | 251° |
| 2026-05-05 18:51 | 43.44875 | 39.94778 | 53 ft | 15 kts | 250° |
| 2026-05-05 18:52 | 43.44829 | 39.94651 | 51 ft | 4 kts | 238° |
| 2026-05-05 18:52 | 43.44814 | 39.94600 | 50 ft | 9 kts | 252° |
| 2026-05-05 18:52 | 43.44812 | 39.94531 | 52 ft | 4 kts | 305° |
| 2026-05-05 18:52 | 43.44839 | 39.94505 | 53 ft | 5 kts | 330° |
| 2026-05-05 18:53 | 43.44845 | 39.94501 | 53 ft | 0 kts | 331° |
| 2026-05-05 18:53 | 43.44848 | 39.94498 | 53 ft | 0 kts | 332° |
| 2026-05-05 18:53 | 43.44848 | 39.94499 | 53 ft | 0 kts | 331° |